Time;durP1;ratioP1;P1;durP2;ratioP2;P2;SDS_P1;SDS_P2;PMS_P1;PMS_P2;Temp;Humidity;BMP_temperature;BMP_pressure;BME280_temperature;BME280_humidity;BME280_pressure;Samples;Min_cycle;Max_cycle;Signal;HPM_P1;HPM_P2
2023/06/23 00:01:13;;;;;;;0.10;0.10;;;;;;;;;;5108851;28;20043;-45
2023/06/23 00:03:39;;;;;;;0.10;0.10;;;;;;;;;;5109239;28;20284;-46
2023/06/23 00:06:05;;;;;;;0.10;0.10;;;;;;;;;;5109338;28;20075;-45
2023/06/23 00:08:30;;;;;;;0.20;0.20;;;;;;;;;;5109255;28;20055;-46
2023/06/23 00:10:57;;;;;;;0.10;0.10;;;;;;;;;;5108839;28;20058;-45
2023/06/23 00:13:22;;;;;;;0.10;0.10;;;;;;;;;;5108943;28;20077;-46
2023/06/23 00:15:49;;;;;;;0.10;0.10;;;;;;;;;;5108151;28;20052;-45
2023/06/23 00:18:15;;;;;;;0.10;0.10;;;;;;;;;;5108044;28;20052;-45
2023/06/23 00:20:41;;;;;;;0.10;0.10;;;;;;;;;;5108650;28;20051;-44
2023/06/23 00:23:07;;;;;;;0.10;0.10;;;;;;;;;;5108943;28;20055;-44
2023/06/23 00:25:32;;;;;;;0.10;0.10;;;;;;;;;;5109404;28;20039;-46
2023/06/23 00:27:59;;;;;;;0.10;0.10;;;;;;;;;;5109313;28;20514;-46
2023/06/23 00:30:24;;;;;;;0.10;0.10;;;;;;;;;;5109108;28;20090;-48
2023/06/23 00:32:50;;;;;;;0.10;0.10;;;;;;;;;;5108684;28;20051;-45
2023/06/23 00:35:15;;;;;;;0.10;0.10;;;;;;;;;;5108702;28;20125;-45
2023/06/23 00:37:42;;;;;;;0.10;0.10;;;;;;;;;;5109389;28;20052;-46
2023/06/23 00:40:10;;;;;;;0.10;0.10;;;;;;;;;;5090640;28;20050;-47
2023/06/23 00:42:43;;;;;;;0.10;0.10;;;;;;;;;;5109305;28;20090;-45
2023/06/23 00:45:09;;;;;;;0.10;0.10;;;;;;;;;;5106154;28;20039;-45
2023/06/23 00:47:35;;;;;;;0.10;0.10;;;;;;;;;;5128960;28;20534;-46
2023/06/23 00:50:01;;;;;;;0.10;0.10;;;;;;;;;;5125030;28;20603;-47
2023/06/23 00:52:27;;;;;;;0.10;0.10;;;;;;;;;;5108830;28;20051;-48
2023/06/23 00:54:52;;;;;;;0.10;0.10;;;;;;;;;;5109191;28;20456;-48
2023/06/23 00:57:18;;;;;;;0.10;0.10;;;;;;;;;;5108286;28;20515;-45
2023/06/23 00:59:44;;;;;;;0.10;0.10;;;;;;;;;;5108514;28;20282;-47
2023/06/23 01:02:10;;;;;;;0.10;0.10;;;;;;;;;;5108887;28;20051;-44
2023/06/23 01:04:35;;;;;;;0.10;0.10;;;;;;;;;;5109152;28;20107;-44
2023/06/23 01:07:21;;;;;;;0.10;0.10;;;;;;;;;;5108794;28;20067;-47
2023/06/23 01:09:56;;;;;;;0.10;0.10;;;;;;;;;;5092493;28;20086;-44
2023/06/23 01:12:32;;;;;;;0.10;0.10;;;;;;;;;;5108658;28;20040;-47
2023/06/23 01:15:04;;;;;;;0.10;0.10;;;;;;;;;;5090478;28;20138;-49
2023/06/23 01:17:32;;;;;;;0.10;0.10;;;;;;;;;;5108866;28;20083;-43
2023/06/23 01:20:18;;;;;;;0.10;0.10;;;;;;;;;;5089564;28;20154;-45
2023/06/23 01:22:48;;;;;;;0.10;0.10;;;;;;;;;;5108236;28;20330;-48
2023/06/23 01:25:33;;;;;;;0.10;0.10;;;;;;;;;;5108023;28;20083;-45
2023/06/23 01:28:07;;;;;;;0.10;0.10;;;;;;;;;;5107419;28;20087;-45
2023/06/23 01:30:35;;;;;;;0.10;0.10;;;;;;;;;;5108227;28;20078;-44
2023/06/23 01:33:10;;;;;;;0.10;0.10;;;;;;;;;;5108003;28;20177;-44
2023/06/23 01:35:40;;;;;;;0.10;0.10;;;;;;;;;;5088351;28;20051;-45
2023/06/23 01:38:09;;;;;;;0.10;0.10;;;;;;;;;;5069723;28;20051;-44
2023/06/23 01:40:35;;;;;;;0.10;0.10;;;;;;;;;;5095858;28;20309;-44
2023/06/23 01:43:04;;;;;;;0.10;0.10;;;;;;;;;;5108389;28;20051;-47
2023/06/23 01:45:29;;;;;;;0.10;0.10;;;;;;;;;;5100987;28;20090;-45
2023/06/23 01:47:58;;;;;;;0.10;0.10;;;;;;;;;;5108339;28;20086;-46
2023/06/23 01:50:23;;;;;;;0.10;0.10;;;;;;;;;;5107686;28;20445;-46
2023/06/23 01:52:50;;;;;;;0.10;0.10;;;;;;;;;;5107902;28;20596;-45
2023/06/23 01:55:16;;;;;;;0.10;0.10;;;;;;;;;;5107949;28;20048;-45
2023/06/23 01:57:43;;;;;;;0.10;0.10;;;;;;;;;;5091630;28;20414;-45
2023/06/23 02:00:13;;;;;;;0.10;0.10;;;;;;;;;;5107066;28;20044;-45
2023/06/23 02:02:40;;;;;;;0.10;0.10;;;;;;;;;;5107982;28;20435;-47
2023/06/23 02:05:06;;;;;;;0.10;0.10;;;;;;;;;;5108145;28;20129;-45
2023/06/23 02:07:33;;;;;;;0.10;0.10;;;;;;;;;;5107748;28;20495;-45
2023/06/23 02:09:59;;;;;;;0.10;0.10;;;;;;;;;;5088364;28;20105;-46
2023/06/23 02:12:25;;;;;;;0.10;0.10;;;;;;;;;;5107016;28;20519;-47
2023/06/23 02:14:50;;;;;;;0.10;0.10;;;;;;;;;;5107633;28;20558;-45
2023/06/23 02:17:17;;;;;;;0.10;0.10;;;;;;;;;;5107847;28;20463;-45
2023/06/23 02:19:44;;;;;;;0.10;0.10;;;;;;;;;;5106804;28;20047;-45
2023/06/23 02:22:11;;;;;;;0.10;0.10;;;;;;;;;;5106904;28;20047;-45
2023/06/23 02:24:37;;;;;;;0.10;0.10;;;;;;;;;;5107195;28;20088;-46
2023/06/23 02:27:04;;;;;;;0.10;0.10;;;;;;;;;;5106796;28;20105;-45
2023/06/23 02:29:29;;;;;;;0.10;0.10;;;;;;;;;;5107150;28;20062;-45
2023/06/23 02:31:55;;;;;;;0.10;0.10;;;;;;;;;;5106749;28;20051;-44
2023/06/23 02:34:21;;;;;;;0.10;0.10;;;;;;;;;;5106911;28;20490;-47
2023/06/23 02:36:48;;;;;;;0.10;0.10;;;;;;;;;;5106891;28;20044;-44
2023/06/23 02:39:15;;;;;;;0.10;0.10;;;;;;;;;;5106955;28;20075;-47
2023/06/23 02:41:42;;;;;;;0.10;0.10;;;;;;;;;;5106815;28;20087;-48
2023/06/23 02:44:11;;;;;;;0.10;0.10;;;;;;;;;;5101813;28;20407;-47
2023/06/23 02:46:38;;;;;;;0.10;0.10;;;;;;;;;;5123533;28;20449;-48
2023/06/23 02:49:07;;;;;;;0.10;0.10;;;;;;;;;;5126436;28;20482;-44
2023/06/23 02:51:34;;;;;;;0.10;0.10;;;;;;;;;;5109165;28;20454;-46
2023/06/23 02:54:04;;;;;;;0.10;0.10;;;;;;;;;;5087964;28;20040;-45
2023/06/23 02:56:30;;;;;;;0.10;0.10;;;;;;;;;;5106130;28;20055;-45
2023/06/23 02:59:01;;;;;;;0.10;0.10;;;;;;;;;;5105755;28;20120;-48
2023/06/23 03:01:28;;;;;;;0.10;0.10;;;;;;;;;;5105837;28;20048;-47
2023/06/23 03:03:55;;;;;;;0.10;0.10;;;;;;;;;;5106097;28;20046;-46
2023/06/23 03:06:21;;;;;;;0.10;0.10;;;;;;;;;;5106450;28;20488;-44
2023/06/23 03:08:47;;;;;;;0.10;0.10;;;;;;;;;;5105549;28;20454;-45
2023/06/23 03:11:14;;;;;;;0.10;0.10;;;;;;;;;;5105721;28;20094;-46
2023/06/23 03:13:40;;;;;;;0.10;0.10;;;;;;;;;;5087467;28;20051;-43
2023/06/23 03:16:07;;;;;;;0.10;0.10;;;;;;;;;;5106293;28;20151;-46
2023/06/23 03:18:33;;;;;;;0.10;0.10;;;;;;;;;;5105924;28;20074;-46
2023/06/23 03:21:02;;;;;;;0.10;0.10;;;;;;;;;;5105412;28;20047;-47
2023/06/23 03:23:30;;;;;;;0.10;0.10;;;;;;;;;;5105732;28;20498;-45
2023/06/23 03:25:56;;;;;;;0.10;0.10;;;;;;;;;;5105834;28;20531;-48
2023/06/23 03:28:25;;;;;;;0.10;0.10;;;;;;;;;;5105410;28;20059;-48
2023/06/23 03:30:53;;;;;;;0.10;0.10;;;;;;;;;;5095197;28;20082;-46
2023/06/23 03:33:21;;;;;;;0.15;0.15;;;;;;;;;;5106011;28;20047;-46
2023/06/23 03:35:48;;;;;;;0.10;0.10;;;;;;;;;;5087694;28;20075;-45
2023/06/23 03:38:15;;;;;;;0.10;0.10;;;;;;;;;;5105890;28;20075;-46
2023/06/23 03:40:45;;;;;;;0.10;0.10;;;;;;;;;;5105715;28;20055;-45
2023/06/23 03:43:15;;;;;;;0.10;0.10;;;;;;;;;;5101611;27;20044;-45
2023/06/23 03:45:42;;;;;;;0.10;0.10;;;;;;;;;;5088039;28;20350;-44
2023/06/23 03:48:09;;;;;;;0.20;0.20;;;;;;;;;;5105876;28;20040;-47
2023/06/23 03:50:36;;;;;;;0.30;0.30;;;;;;;;;;5105525;28;20086;-46
2023/06/23 03:53:02;;;;;;;0.10;0.10;;;;;;;;;;5105856;28;20071;-46
2023/06/23 03:55:30;;;;;;;0.10;0.10;;;;;;;;;;5087820;28;20512;-45
2023/06/23 03:57:59;;;;;;;0.10;0.10;;;;;;;;;;5105762;28;20063;-47
2023/06/23 04:00:25;;;;;;;0.10;0.10;;;;;;;;;;5105311;28;20093;-46
2023/06/23 04:02:51;;;;;;;0.10;0.10;;;;;;;;;;5105198;28;20201;-45
2023/06/23 04:05:18;;;;;;;0.10;0.10;;;;;;;;;;5105928;28;20063;-45
2023/06/23 04:07:44;;;;;;;0.10;0.10;;;;;;;;;;5106276;28;20101;-47
2023/06/23 04:10:11;;;;;;;0.10;0.10;;;;;;;;;;5106520;28;20086;-46
2023/06/23 04:12:36;;;;;;;0.10;0.10;;;;;;;;;;5108700;28;20435;-46
2023/06/23 04:15:04;;;;;;;0.10;0.10;;;;;;;;;;5108896;28;20487;-46
2023/06/23 04:17:31;;;;;;;0.10;0.10;;;;;;;;;;5108703;28;20217;-47
2023/06/23 04:19:57;;;;;;;0.10;0.10;;;;;;;;;;5108239;28;20050;-46
2023/06/23 04:22:25;;;;;;;0.10;0.10;;;;;;;;;;5108608;28;20288;-45
2023/06/23 04:24:52;;;;;;;0.10;0.10;;;;;;;;;;5108269;28;20047;-46
2023/06/23 04:27:18;;;;;;;0.10;0.10;;;;;;;;;;5108344;28;20043;-43
2023/06/23 04:29:45;;;;;;;0.10;0.10;;;;;;;;;;5106752;28;20075;-46
2023/06/23 04:32:12;;;;;;;0.10;0.10;;;;;;;;;;5108014;28;20047;-45
2023/06/23 04:34:38;;;;;;;0.10;0.10;;;;;;;;;;5108295;28;20452;-46
2023/06/23 04:37:08;;;;;;;0.10;0.10;;;;;;;;;;5108518;28;20552;-48
2023/06/23 04:39:43;;;;;;;0.10;0.10;;;;;;;;;;5097816;28;20075;-46
2023/06/23 04:42:09;;;;;;;0.10;0.10;;;;;;;;;;5107562;28;20411;-47
2023/06/23 04:44:41;;;;;;;0.10;0.10;;;;;;;;;;5124388;28;20043;-47
2023/06/23 04:47:07;;;;;;;0.10;0.10;;;;;;;;;;5109842;28;20496;-48
2023/06/23 04:49:33;;;;;;;0.10;0.10;;;;;;;;;;5107937;28;20568;-47
2023/06/23 04:52:01;;;;;;;0.10;0.10;;;;;;;;;;5108031;28;20071;-46
2023/06/23 04:54:31;;;;;;;0.10;0.10;;;;;;;;;;5108435;28;20090;-44
2023/06/23 04:57:01;;;;;;;0.10;0.10;;;;;;;;;;5089755;28;20079;-46
2023/06/23 04:59:30;;;;;;;0.10;0.10;;;;;;;;;;5108109;28;20536;-48
2023/06/23 05:01:57;;;;;;;0.10;0.10;;;;;;;;;;5107771;28;20541;-46
2023/06/23 05:04:22;;;;;;;0.10;0.10;;;;;;;;;;5106959;28;20459;-47
2023/06/23 05:06:48;;;;;;;0.10;0.10;;;;;;;;;;5107928;28;20134;-47
2023/06/23 05:09:14;;;;;;;0.10;0.10;;;;;;;;;;5107324;28;20456;-44
2023/06/23 05:11:41;;;;;;;0.10;0.10;;;;;;;;;;5107413;28;20059;-44
2023/06/23 05:14:07;;;;;;;0.10;0.10;;;;;;;;;;5107421;28;20449;-45
2023/06/23 05:16:34;;;;;;;0.10;0.10;;;;;;;;;;5107984;28;20043;-46
2023/06/23 05:19:01;;;;;;;0.10;0.10;;;;;;;;;;5089449;28;20052;-45
2023/06/23 05:21:27;;;;;;;0.10;0.10;;;;;;;;;;5106803;28;20104;-46
2023/06/23 05:23:54;;;;;;;0.10;0.10;;;;;;;;;;5089278;28;20094;-46
2023/06/23 05:26:20;;;;;;;0.10;0.10;;;;;;;;;;5107677;28;20415;-47
2023/06/23 05:28:47;;;;;;;0.20;0.20;;;;;;;;;;5097935;28;20074;-44
2023/06/23 05:31:14;;;;;;;0.10;0.10;;;;;;;;;;5107101;28;20049;-46
2023/06/23 05:33:40;;;;;;;0.10;0.10;;;;;;;;;;5106887;28;20403;-46
2023/06/23 05:36:07;;;;;;;0.10;0.10;;;;;;;;;;5089455;28;20117;-44
2023/06/23 05:38:34;;;;;;;0.10;0.10;;;;;;;;;;5106877;28;20054;-45
2023/06/23 05:40:59;;;;;;;0.10;0.10;;;;;;;;;;5106261;28;20276;-46
2023/06/23 05:43:25;;;;;;;0.10;0.10;;;;;;;;;;5092693;27;20402;-48
2023/06/23 05:45:52;;;;;;;0.10;0.10;;;;;;;;;;5086590;28;20164;-45
2023/06/23 05:48:28;;;;;;;0.10;0.10;;;;;;;;;;5099954;28;20055;-46
2023/06/23 05:50:55;;;;;;;0.10;0.10;;;;;;;;;;5106580;28;20058;-46
2023/06/23 05:53:21;;;;;;;0.10;0.10;;;;;;;;;;5107455;28;20148;-43
2023/06/23 05:55:52;;;;;;;0.10;0.10;;;;;;;;;;5107564;28;20161;-44
2023/06/23 05:58:18;;;;;;;0.10;0.10;;;;;;;;;;5105223;28;20082;-47
2023/06/23 06:00:46;;;;;;;0.10;0.10;;;;;;;;;;5106226;28;20474;-46
2023/06/23 06:03:14;;;;;;;0.10;0.10;;;;;;;;;;5088615;28;20195;-46
2023/06/23 06:05:45;;;;;;;0.10;0.10;;;;;;;;;;5106581;28;20074;-43
2023/06/23 06:08:11;;;;;;;0.10;0.10;;;;;;;;;;5106852;28;20079;-46
2023/06/23 06:10:37;;;;;;;0.10;0.10;;;;;;;;;;5105816;28;20052;-45
2023/06/23 06:13:04;;;;;;;0.10;0.10;;;;;;;;;;5106526;28;20142;-44
2023/06/23 06:15:30;;;;;;;0.10;0.10;;;;;;;;;;5106344;28;20055;-46
2023/06/23 06:17:59;;;;;;;0.10;0.10;;;;;;;;;;5106996;28;20078;-44
2023/06/23 06:20:26;;;;;;;0.10;0.10;;;;;;;;;;5088125;28;20036;-46
2023/06/23 06:22:52;;;;;;;0.10;0.10;;;;;;;;;;5107140;28;20070;-45
2023/06/23 06:25:28;;;;;;;0.10;0.10;;;;;;;;;;5107548;28;20306;-44
2023/06/23 06:27:55;;;;;;;0.10;0.10;;;;;;;;;;5107920;28;20086;-47
2023/06/23 06:30:21;;;;;;;0.10;0.10;;;;;;;;;;5106808;28;20081;-46
2023/06/23 06:32:47;;;;;;;0.10;0.10;;;;;;;;;;5106395;28;20044;-46
2023/06/23 06:35:13;;;;;;;0.15;0.15;;;;;;;;;;5107370;28;20476;-44
2023/06/23 06:37:41;;;;;;;0.10;0.10;;;;;;;;;;5107552;28;20055;-46
2023/06/23 06:40:08;;;;;;;0.10;0.10;;;;;;;;;;5107154;28;20074;-44
2023/06/23 06:42:34;;;;;;;0.10;0.10;;;;;;;;;;5107576;28;20308;-39
2023/06/23 06:44:59;;;;;;;0.10;0.10;;;;;;;;;;5106194;28;20502;-40
2023/06/23 06:47:28;;;;;;;0.17;0.17;;;;;;;;;;5107132;28;20050;-40
2023/06/23 06:49:53;;;;;;;;;;;;;;;;;;5106636;28;20103;-39
2023/06/23 06:52:20;;;;;;;0.10;0.10;;;;;;;;;;5106616;28;20329;-39
2023/06/23 06:54:47;;;;;;;0.10;0.10;;;;;;;;;;5106989;28;20210;-39
2023/06/23 06:57:13;;;;;;;0.10;0.10;;;;;;;;;;5107058;28;20047;-39
2023/06/23 06:59:39;;;;;;;0.10;0.10;;;;;;;;;;5106363;28;20430;-39
2023/06/23 07:02:05;;;;;;;0.10;0.10;;;;;;;;;;5107118;28;20047;-39
2023/06/23 07:04:31;;;;;;;0.10;0.10;;;;;;;;;;5106706;28;20115;-39
2023/06/23 07:06:56;;;;;;;0.10;0.10;;;;;;;;;;5106253;28;20082;-39
2023/06/23 07:09:22;;;;;;;0.10;0.10;;;;;;;;;;5106573;28;20083;-39
2023/06/23 07:11:48;;;;;;;0.10;0.10;;;;;;;;;;5105908;28;20040;-38
2023/06/23 07:14:14;;;;;;;0.10;0.10;;;;;;;;;;5106254;28;20048;-39
2023/06/23 07:16:40;;;;;;;0.10;0.10;;;;;;;;;;5106357;28;20100;-40
2023/06/23 07:19:05;;;;;;;0.10;0.10;;;;;;;;;;5106088;28;20052;-39
2023/06/23 07:21:32;;;;;;;0.22;0.22;;;;;;;;;;5105513;28;20075;-39
2023/06/23 07:23:57;;;;;;;0.10;0.10;;;;;;;;;;5106002;28;20415;-39
2023/06/23 07:26:23;;;;;;;0.10;0.10;;;;;;;;;;5106387;28;20402;-39
2023/06/23 07:28:48;;;;;;;0.10;0.10;;;;;;;;;;5106182;28;20074;-39
2023/06/23 07:31:14;;;;;;;0.10;0.10;;;;;;;;;;5105021;28;20388;-40
2023/06/23 07:33:40;;;;;;;0.10;0.10;;;;;;;;;;5105609;28;20047;-39
2023/06/23 07:36:06;;;;;;;0.10;0.10;;;;;;;;;;5105466;28;20124;-39
2023/06/23 07:38:31;;;;;;;0.10;0.10;;;;;;;;;;5105865;28;20047;-39
2023/06/23 07:40:57;;;;;;;0.10;0.10;;;;;;;;;;5107479;28;20051;-40
2023/06/23 07:43:23;;;;;;;0.10;0.10;;;;;;;;;;5121209;28;20043;-40
2023/06/23 07:45:49;;;;;;;0.10;0.10;;;;;;;;;;5107775;28;20074;-39
2023/06/23 07:48:14;;;;;;;0.10;0.10;;;;;;;;;;5109544;28;20472;-39
2023/06/23 07:50:40;;;;;;;0.10;0.10;;;;;;;;;;5108523;28;20480;-39
2023/06/23 07:53:05;;;;;;;0.10;0.10;;;;;;;;;;5109074;28;20054;-40
2023/06/23 07:55:31;;;;;;;0.10;0.10;;;;;;;;;;5110348;28;20585;-38
2023/06/23 07:57:56;;;;;;;0.10;0.10;;;;;;;;;;5109894;28;20051;-39
2023/06/23 08:00:23;;;;;;;0.10;0.10;;;;;;;;;;5109107;28;20048;-40
2023/06/23 08:02:49;;;;;;;0.10;0.10;;;;;;;;;;5109581;28;20407;-40
2023/06/23 08:05:15;;;;;;;0.10;0.10;;;;;;;;;;5109290;28;20511;-39
2023/06/23 08:07:40;;;;;;;0.10;0.10;;;;;;;;;;5109648;28;20047;-40
2023/06/23 08:10:06;;;;;;;0.10;0.10;;;;;;;;;;5108340;28;20055;-39
2023/06/23 08:12:32;;;;;;;0.10;0.10;;;;;;;;;;5108513;28;20075;-40
2023/06/23 08:14:58;;;;;;;0.10;0.10;;;;;;;;;;5091119;28;20051;-39
2023/06/23 08:17:23;;;;;;;0.10;0.10;;;;;;;;;;5109732;28;20151;-39
2023/06/23 08:19:49;;;;;;;0.10;0.10;;;;;;;;;;5108911;28;20056;-40
2023/06/23 08:22:15;;;;;;;0.10;0.10;;;;;;;;;;5108896;28;20048;-38
2023/06/23 08:24:41;;;;;;;0.10;0.10;;;;;;;;;;5109349;28;20527;-41
2023/06/23 08:27:06;;;;;;;0.10;0.10;;;;;;;;;;5109418;28;20051;-40
2023/06/23 08:29:32;;;;;;;0.10;0.10;;;;;;;;;;5109122;28;20518;-39
2023/06/23 08:31:58;;;;;;;0.10;0.10;;;;;;;;;;5104807;28;20047;-40
2023/06/23 08:34:23;;;;;;;0.10;0.10;;;;;;;;;;5108720;28;20210;-40
2023/06/23 08:36:49;;;;;;;0.10;0.10;;;;;;;;;;5108938;28;20055;-39
2023/06/23 08:39:14;;;;;;;0.10;0.10;;;;;;;;;;5108346;28;20055;-40
2023/06/23 08:41:41;;;;;;;0.13;0.13;;;;;;;;;;5117057;28;20189;-39
2023/06/23 08:44:10;;;;;;;0.10;0.10;;;;;;;;;;5129486;28;20043;-39
2023/06/23 08:46:39;;;;;;;0.10;0.10;;;;;;;;;;5111606;28;20231;-39
2023/06/23 08:49:24;;;;;;;0.10;0.10;;;;;;;;;;5107856;28;20056;-40
2023/06/23 08:51:50;;;;;;;0.10;0.10;;;;;;;;;;5108384;28;20129;-40
2023/06/23 08:54:16;;;;;;;0.10;0.10;;;;;;;;;;5108010;28;20475;-39
2023/06/23 08:56:43;;;;;;;0.10;0.10;;;;;;;;;;5107717;28;20062;-40
2023/06/23 08:59:09;;;;;;;0.10;0.10;;;;;;;;;;5108478;28;20521;-40
2023/06/23 09:01:35;;;;;;;0.10;0.10;;;;;;;;;;5108353;28;20518;-39
2023/06/23 09:04:01;;;;;;;0.10;0.10;;;;;;;;;;5108740;28;20096;-39
2023/06/23 09:06:26;;;;;;;0.10;0.10;;;;;;;;;;5108787;28;20049;-39
2023/06/23 09:08:52;;;;;;;0.10;0.10;;;;;;;;;;5108451;28;20058;-39
2023/06/23 09:11:17;;;;;;;0.10;0.10;;;;;;;;;;5107815;28;20251;-40
2023/06/23 09:13:45;;;;;;;0.10;0.10;;;;;;;;;;5108360;28;20104;-40
2023/06/23 09:16:10;;;;;;;0.10;0.10;;;;;;;;;;5108204;28;20050;-41
2023/06/23 09:18:40;;;;;;;0.10;0.10;;;;;;;;;;5107961;28;20055;-39
2023/06/23 09:21:07;;;;;;;0.10;0.10;;;;;;;;;;5107706;28;20071;-40
2023/06/23 09:23:33;;;;;;;0.10;0.10;;;;;;;;;;5107765;28;20043;-39
2023/06/23 09:26:02;;;;;;;0.10;0.10;;;;;;;;;;5108051;28;20476;-40
2023/06/23 09:28:29;;;;;;;0.10;0.10;;;;;;;;;;5107946;28;20082;-39
2023/06/23 09:30:56;;;;;;;0.10;0.10;;;;;;;;;;5107515;28;20476;-39
2023/06/23 09:33:22;;;;;;;0.10;0.10;;;;;;;;;;5107283;28;20602;-39
2023/06/23 09:35:49;;;;;;;0.10;0.10;;;;;;;;;;5098237;28;20198;-39
2023/06/23 09:38:18;;;;;;;0.10;0.10;;;;;;;;;;5107924;28;20074;-40
2023/06/23 09:40:44;;;;;;;0.10;0.10;;;;;;;;;;5107035;28;20739;-40
2023/06/23 09:43:09;;;;;;;0.20;0.20;;;;;;;;;;5128586;28;20612;-40
2023/06/23 09:45:35;;;;;;;0.10;0.10;;;;;;;;;;5127815;28;20587;-40
2023/06/23 09:48:00;;;;;;;0.20;0.20;;;;;;;;;;5113318;28;20047;-39
2023/06/23 09:50:27;;;;;;;0.10;0.10;;;;;;;;;;5107309;28;20044;-39
2023/06/23 09:53:01;;;;;;;0.10;0.10;;;;;;;;;;5107117;28;20487;-40
2023/06/23 09:55:28;;;;;;;0.10;0.10;;;;;;;;;;5106881;28;20100;-40
2023/06/23 09:57:54;;;;;;;0.10;0.10;;;;;;;;;;5107612;28;20452;-39
2023/06/23 10:00:28;;;;;;;0.10;0.10;;;;;;;;;;5107285;28;20054;-40
2023/06/23 10:02:53;;;;;;;0.20;0.20;;;;;;;;;;5088972;28;20240;-39
2023/06/23 10:05:22;;;;;;;0.10;0.10;;;;;;;;;;5107872;28;20047;-39
2023/06/23 10:07:48;;;;;;;0.10;0.10;;;;;;;;;;5107815;28;20463;-39
2023/06/23 10:10:14;;;;;;;0.88;0.20;;;;;;;;;;5107130;28;20059;-42
2023/06/23 10:12:48;;;;;;;0.10;0.10;;;;;;;;;;5106938;28;20075;-39
2023/06/23 10:15:13;;;;;;;0.10;0.10;;;;;;;;;;5107299;28;20531;-39
2023/06/23 10:17:40;;;;;;;0.10;0.10;;;;;;;;;;5107401;28;20353;-39
2023/06/23 10:20:07;;;;;;;0.20;0.20;;;;;;;;;;5088718;28;20052;-39
2023/06/23 10:22:33;;;;;;;0.20;0.20;;;;;;;;;;5107215;28;20073;-38
2023/06/23 10:24:59;;;;;;;0.10;0.10;;;;;;;;;;5107091;28;20469;-39
2023/06/23 10:27:25;;;;;;;0.10;0.10;;;;;;;;;;5107472;28;20552;-39
2023/06/23 10:29:54;;;;;;;0.17;0.17;;;;;;;;;;5107182;28;20086;-39
2023/06/23 10:32:19;;;;;;;;;;;;;;;;;;5107475;28;20047;-39
2023/06/23 10:34:45;;;;;;;0.10;0.10;;;;;;;;;;5106322;28;19927;-39
2023/06/23 10:37:14;;;;;;;0.10;0.10;;;;;;;;;;5106934;28;20362;-39
2023/06/23 10:39:41;;;;;;;0.10;0.10;;;;;;;;;;5105693;28;20051;-40
2023/06/23 10:42:11;;;;;;;0.10;0.10;;;;;;;;;;5107208;28;20055;-39
2023/06/23 10:44:37;;;;;;;0.10;0.10;;;;;;;;;;5106281;28;20079;-39
2023/06/23 10:47:03;;;;;;;0.10;0.10;;;;;;;;;;5106937;28;20090;-39
2023/06/23 10:49:28;;;;;;;0.10;0.10;;;;;;;;;;5106357;28;20055;-40
2023/06/23 10:51:54;;;;;;;0.10;0.10;;;;;;;;;;5106191;28;20071;-39
2023/06/23 10:54:28;;;;;;;0.10;0.10;;;;;;;;;;5106661;28;20532;-39
2023/06/23 10:56:54;;;;;;;0.10;0.10;;;;;;;;;;5088439;28;20051;-39
2023/06/23 10:59:21;;;;;;;0.10;0.10;;;;;;;;;;5106419;28;20135;-40
2023/06/23 11:04:38;;;;;;;0.20;0.20;;;;;;;;;;5186457;27;20592;-36
2023/06/23 11:07:06;;;;;;;0.17;0.17;;;;;;;;;;5146325;27;20050;-37
2023/06/23 11:09:45;;;;;;;0.10;0.10;;;;;;;;;;5146138;27;20277;-38
2023/06/23 11:12:30;;;;;;;0.10;0.10;;;;;;;;;;5164546;27;20422;-38
2023/06/23 11:15:09;;;;;;;0.10;0.10;;;;;;;;;;5149122;27;20386;-39
2023/06/23 11:17:54;;;;;;;0.10;0.10;;;;;;;;;;5146755;27;20053;-36
2023/06/23 11:20:23;;;;;;;0.10;0.10;;;;;;;;;;5149033;27;20050;-37
2023/06/23 11:22:53;;;;;;;0.10;0.10;;;;;;;;;;5152736;27;20498;-37
2023/06/23 11:25:27;;;;;;;0.10;0.10;;;;;;;;;;5144279;27;20089;-38
2023/06/23 11:28:12;;;;;;;0.10;0.10;;;;;;;;;;5143974;27;20410;-37
2023/06/23 11:30:50;;;;;;;0.10;0.10;;;;;;;;;;5128246;27;20075;-37
2023/06/23 11:33:17;;;;;;;;;;;;;;;;;;5144428;27;20497;-38
2023/06/23 11:35:42;;;;;;;0.10;0.10;;;;;;;;;;5143921;27;19971;-38
2023/06/23 11:38:08;;;;;;;0.10;0.10;;;;;;;;;;5141519;27;20039;-37
2023/06/23 11:40:34;;;;;;;0.10;0.10;;;;;;;;;;5132797;27;20067;-37
2023/06/23 11:43:00;;;;;;;0.10;0.10;;;;;;;;;;5131745;27;20203;-37
2023/06/23 11:45:46;;;;;;;0.10;0.10;;;;;;;;;;5143589;27;20046;-37
2023/06/23 11:48:11;;;;;;;0.10;0.10;;;;;;;;;;5144208;27;20043;-37
2023/06/23 11:50:40;;;;;;;0.10;0.10;;;;;;;;;;5143062;27;20406;-37
2023/06/23 11:53:06;;;;;;;0.10;0.10;;;;;;;;;;5143754;27;20050;-37
2023/06/23 11:55:32;;;;;;;0.10;0.10;;;;;;;;;;5144074;27;20039;-38
2023/06/23 11:57:58;;;;;;;0.10;0.10;;;;;;;;;;5125218;27;20479;-38
2023/06/23 12:00:24;;;;;;;0.10;0.10;;;;;;;;;;5135590;27;20091;-37
2023/06/23 12:02:50;;;;;;;0.10;0.10;;;;;;;;;;5122869;28;20441;-38
2023/06/23 12:05:15;;;;;;;0.10;0.10;;;;;;;;;;5123340;28;20100;-37
2023/06/23 12:07:41;;;;;;;0.10;0.10;;;;;;;;;;5123770;28;20135;-37
2023/06/23 12:10:07;;;;;;;0.10;0.10;;;;;;;;;;5122265;27;20065;-38
2023/06/23 12:12:34;;;;;;;0.30;0.30;;;;;;;;;;5122410;28;20370;-37
2023/06/23 12:15:00;;;;;;;0.10;0.10;;;;;;;;;;5114659;28;20051;-37
2023/06/23 12:17:25;;;;;;;0.10;0.10;;;;;;;;;;5091404;28;20054;-37
2023/06/23 12:19:51;;;;;;;0.20;0.20;;;;;;;;;;5109099;28;20051;-37
2023/06/23 12:22:20;;;;;;;;;;;;;;;;;;5109313;28;20131;-37
2023/06/23 12:24:46;;;;;;;0.10;0.10;;;;;;;;;;5109408;28;19959;-38
2023/06/23 12:27:11;;;;;;;0.10;0.10;;;;;;;;;;5091074;28;20063;-39
2023/06/23 12:29:37;;;;;;;0.10;0.10;;;;;;;;;;5108815;28;20048;-38
2023/06/23 12:32:03;;;;;;;0.25;0.25;;;;;;;;;;5108816;28;20298;-38
2023/06/23 12:34:29;;;;;;;0.10;0.10;;;;;;;;;;5108791;28;20051;-38
2023/06/23 12:37:01;;;;;;;0.10;0.10;;;;;;;;;;5111023;28;20059;-37
2023/06/23 12:39:28;;;;;;;0.10;0.10;;;;;;;;;;5135245;27;20047;-37
2023/06/23 12:41:54;;;;;;;0.13;0.13;;;;;;;;;;5126493;27;20136;-38
2023/06/23 12:44:21;;;;;;;0.10;0.10;;;;;;;;;;5128098;28;20051;-37
2023/06/23 12:46:46;;;;;;;0.10;0.10;;;;;;;;;;5129069;27;20051;-39
2023/06/23 12:49:12;;;;;;;0.10;0.10;;;;;;;;;;5128759;28;20073;-36
2023/06/23 12:51:38;;;;;;;0.10;0.10;;;;;;;;;;5109543;28;20047;-38
2023/06/23 12:54:03;;;;;;;0.10;0.10;;;;;;;;;;5127135;28;20068;-37
2023/06/23 12:56:29;;;;;;;0.10;0.10;;;;;;;;;;5128884;28;20047;-38
2023/06/23 12:58:55;;;;;;;0.10;0.10;;;;;;;;;;5128945;28;20050;-37
2023/06/23 13:01:21;;;;;;;0.20;0.20;;;;;;;;;;5109793;28;20578;-37
2023/06/23 13:03:46;;;;;;;0.10;0.10;;;;;;;;;;5128889;28;20057;-37
2023/06/23 13:06:13;;;;;;;0.10;0.10;;;;;;;;;;5128919;28;20443;-39
2023/06/23 13:08:39;;;;;;;0.10;0.10;;;;;;;;;;5128427;28;20082;-42
2023/06/23 13:11:04;;;;;;;0.10;0.10;;;;;;;;;;5128030;28;20051;-43
2023/06/23 13:13:30;;;;;;;0.10;0.10;;;;;;;;;;5110087;28;20096;-42
2023/06/23 13:15:56;;;;;;;0.10;0.10;;;;;;;;;;5127911;28;20249;-43
2023/06/23 13:18:21;;;;;;;0.10;0.10;;;;;;;;;;5129026;28;20050;-45
2023/06/23 13:20:49;;;;;;;0.10;0.10;;;;;;;;;;5128509;28;20046;-42
2023/06/23 13:23:14;;;;;;;0.10;0.10;;;;;;;;;;5128456;27;20547;-43
2023/06/23 13:25:40;;;;;;;0.10;0.10;;;;;;;;;;5128370;27;20510;-41
2023/06/23 13:28:06;;;;;;;0.10;0.10;;;;;;;;;;5127989;28;20062;-42
2023/06/23 13:30:31;;;;;;;0.10;0.10;;;;;;;;;;5128619;28;20074;-43
2023/06/23 13:32:57;;;;;;;0.10;0.10;;;;;;;;;;5128904;28;20520;-42
2023/06/23 13:35:23;;;;;;;0.10;0.10;;;;;;;;;;5129137;28;20043;-42
2023/06/23 13:37:48;;;;;;;0.10;0.10;;;;;;;;;;5130939;27;20497;-42
2023/06/23 13:40:14;;;;;;;0.10;0.10;;;;;;;;;;5133757;27;20035;-43
2023/06/23 13:42:40;;;;;;;0.10;0.10;;;;;;;;;;5127985;28;20569;-44
2023/06/23 13:45:07;;;;;;;0.10;0.10;;;;;;;;;;5109858;28;20055;-46
2023/06/23 13:47:32;;;;;;;0.10;0.10;;;;;;;;;;5128148;28;20047;-42
2023/06/23 13:49:58;;;;;;;0.10;0.10;;;;;;;;;;5127842;28;20055;-43
2023/06/23 13:52:24;;;;;;;0.10;0.10;;;;;;;;;;5127998;28;20039;-43
2023/06/23 13:54:49;;;;;;;0.10;0.10;;;;;;;;;;5127965;28;20146;-42
2023/06/23 13:57:16;;;;;;;0.10;0.10;;;;;;;;;;5128718;28;20099;-44
2023/06/23 13:59:42;;;;;;;0.10;0.10;;;;;;;;;;5127710;28;20055;-43
2023/06/23 14:02:07;;;;;;;0.10;0.10;;;;;;;;;;5127499;28;20498;-42
2023/06/23 14:04:33;;;;;;;0.10;0.10;;;;;;;;;;5128057;28;20047;-42
2023/06/23 14:06:59;;;;;;;0.10;0.10;;;;;;;;;;5128168;28;20050;-42
2023/06/23 14:09:24;;;;;;;0.10;0.10;;;;;;;;;;5127495;27;20047;-43
2023/06/23 14:11:50;;;;;;;0.10;0.10;;;;;;;;;;5107734;28;20074;-45
2023/06/23 14:14:16;;;;;;;0.10;0.10;;;;;;;;;;5107026;28;20070;-44
2023/06/23 14:16:42;;;;;;;0.10;0.10;;;;;;;;;;5107757;28;20048;-44
2023/06/23 14:19:09;;;;;;;0.10;0.10;;;;;;;;;;5107422;28;20107;-45
2023/06/23 14:21:35;;;;;;;0.10;0.10;;;;;;;;;;5088140;28;20074;-42
2023/06/23 14:24:01;;;;;;;0.10;0.10;;;;;;;;;;5106764;28;20814;-43
2023/06/23 14:26:26;;;;;;;0.20;0.15;;;;;;;;;;5107308;28;20055;-42
2023/06/23 14:28:52;;;;;;;0.10;0.10;;;;;;;;;;5107467;28;20051;-42
2023/06/23 14:31:17;;;;;;;0.10;0.10;;;;;;;;;;5107018;28;20046;-44
2023/06/23 14:33:44;;;;;;;0.10;0.10;;;;;;;;;;5106830;28;20085;-45
2023/06/23 14:36:11;;;;;;;0.10;0.10;;;;;;;;;;5107313;28;20052;-41
2023/06/23 14:38:37;;;;;;;0.10;0.10;;;;;;;;;;5122912;27;20039;-43
2023/06/23 14:41:02;;;;;;;0.10;0.10;;;;;;;;;;5129093;27;20480;-43
2023/06/23 14:43:28;;;;;;;0.10;0.10;;;;;;;;;;5126574;28;20483;-43
2023/06/23 14:45:53;;;;;;;0.20;0.20;;;;;;;;;;5126850;28;20051;-43